FORUMAMONTRES
AccueilAccueil  PortailPortail  RechercherRechercher  S'enregistrerS'enregistrer  Connexion  
| |
 

 [HS] Belle journée pour l'horlogerie !

Aller en bas 
3 participants
AuteurMessage
Ratkiller
Membre référent
Ratkiller


Nombre de messages : 6076
Age : 63
Localisation : Ile de France. Not far away from Herblay
Date d'inscription : 26/04/2006

[HS] Belle journée pour l'horlogerie ! Empty
MessageSujet: [HS] Belle journée pour l'horlogerie !   [HS] Belle journée pour l'horlogerie ! Empty13/5/2007, 16:02

En fait, j'aurais du partir ce matin à Amboise pour la journée, mais.........





TAFC :


TAF LFPN 131400Z 131524 24015G30KT 9999 SCT030 TEMPO 1524 24025G40KT 3000 -TSRA BKN020CB=




Bon, ça ne parlera pas à tout le monde mais, en version claire, ça veut dire que je n'aurais pas pu rentrer ce soir Very Happy

Donc, mes gazelles ayant pris campo aujourd'hui, je suis revenu à mon bureau, et je bricole !

Je me suis attaqué à un vieux mouvement de gousset, qui marine dans l'essence.

Et, souhaitant essayer un pique-huile automatique que mon horloger m'a donné, je me demandais comment remplir icelui ? On démonte, on verse, et on remonte, ou il y a un truc ?

Réference Bergeon 5 - # 2720
Revenir en haut Aller en bas
fly back
Membre référent
fly back


Nombre de messages : 5526
Age : 60
Localisation : ouest
Date d'inscription : 05/09/2006

[HS] Belle journée pour l'horlogerie ! Empty
MessageSujet: Re: [HS] Belle journée pour l'horlogerie !   [HS] Belle journée pour l'horlogerie ! Empty13/5/2007, 17:43

Citation :
TAF LFPN 131400Z 131524 24015G30KT 9999 SCT030 TEMPO 1524 24025G40KT 3000 -TSRA BKN020CB=
en robin probablement, en dassault c'est moins incertain !
Revenir en haut Aller en bas
Ratkiller
Membre référent
Ratkiller


Nombre de messages : 6076
Age : 63
Localisation : Ile de France. Not far away from Herblay
Date d'inscription : 26/04/2006

[HS] Belle journée pour l'horlogerie ! Empty
MessageSujet: Re: [HS] Belle journée pour l'horlogerie !   [HS] Belle journée pour l'horlogerie ! Empty13/5/2007, 18:56

fly back a écrit:
Citation :
TAF LFPN 131400Z 131524 24015G30KT 9999 SCT030 TEMPO 1524 24025G40KT 3000 -TSRA BKN020CB=
en robin probablement, en dassault c'est moins incertain !

Certes Very Happy Mais avec 700 mètres à Amboise, faut arriver debout sur les freins avec un Falcon !
Revenir en haut Aller en bas
Invité
Invité




[HS] Belle journée pour l'horlogerie ! Empty
MessageSujet: Re: [HS] Belle journée pour l'horlogerie !   [HS] Belle journée pour l'horlogerie ! Empty13/5/2007, 19:30

Ratkiller a écrit:


TAFC :


TAF LFPN 131400Z 131524 24015G30KT 9999 SCT030 TEMPO 1524 24025G40KT 3000 -TSRA BKN020CB=




Mme H3 est déjà couchée (elle a bloc demain), je ne vais pas la déranger pour traduire un zaffair' de z'avion, décoder les taf, le soir comme ça... (toussus, 25 à 40 noeuds, épars à 3000 pieds...)

H3


Dernière édition par le 13/5/2007, 19:56, édité 2 fois
Revenir en haut Aller en bas
fly back
Membre référent
fly back


Nombre de messages : 5526
Age : 60
Localisation : ouest
Date d'inscription : 05/09/2006

[HS] Belle journée pour l'horlogerie ! Empty
MessageSujet: Re: [HS] Belle journée pour l'horlogerie !   [HS] Belle journée pour l'horlogerie ! Empty13/5/2007, 19:30

ca freine bien 700 mètres herbe probable! Laughing
Revenir en haut Aller en bas
rgil
Membre très actif
rgil


Nombre de messages : 247
Localisation : Babia-España
Date d'inscription : 16/04/2007

[HS] Belle journée pour l'horlogerie ! Empty
MessageSujet: Re: [HS] Belle journée pour l'horlogerie !   [HS] Belle journée pour l'horlogerie ! Empty14/5/2007, 01:04

Et bien, il a été certain ce taf ?,
il y avait réel ment presque tout plein le ciel de cb à Toussus-le-Noble, cette après midi? Aussi avec orage?
À 14z il étè bon.
METAR 131400 LFPN 131400Z 03012KT 9999 BKN035 06/00 Q1034 NOSIG=
Quel dommage, c´est mieux de ne décoller par Non Non
Revenir en haut Aller en bas
 
[HS] Belle journée pour l'horlogerie !
Revenir en haut 
Page 1 sur 1
 Sujets similaires
-
» Un post qui référence les montres de brocante... tome I
» Les présentations, la suite (9) ...
» Feux de vos LIP "SPECIALES"
» Belle journée G shock!
» Lundis Bleus, la plus belle journée horlogère de ma vie de passionné...

Permission de ce forum:Vous ne pouvez pas répondre aux sujets dans ce forum
FORUMAMONTRES :: Forum général de discussions horlogères :: Forum de discussions sur les montres vintages et sujets techniques-
Sauter vers: